Time;durP1;ratioP1;P1;durP2;ratioP2;P2;SDS_P1;SDS_P2;PMS_P1;PMS_P2;Temp;Humidity;BMP_temperature;BMP_pressure;BME280_temperature;BME280_humidity;BME280_pressure;Samples;Min_cycle;Max_cycle;Signal;HPM_P1;HPM_P2
2021/12/12 00:02:08;;;;;;;18.65;13.85;;;4.80;74.00;;;;;;4971821;28;20028;-81
2021/12/12 00:04:37;;;;;;;22.90;13.63;;;4.80;74.00;;;;;;4968588;28;20414;-81
2021/12/12 00:07:08;;;;;;;19.93;12.80;;;4.80;74.10;;;;;;4971714;28;20022;-81
2021/12/12 00:09:40;;;;;;;17.43;14.13;;;4.80;74.10;;;;;;4968272;28;20026;-81
2021/12/12 00:12:16;;;;;;;19.05;13.27;;;4.80;74.00;;;;;;4980190;28;20030;-81
2021/12/12 00:14:43;;;;;;;16.33;12.53;;;4.80;74.10;;;;;;4966177;28;20131;-81
2021/12/12 00:17:09;;;;;;;22.23;13.57;;;4.80;74.20;;;;;;4986428;28;20031;-81
2021/12/12 00:19:36;;;;;;;16.77;12.50;;;4.80;74.20;;;;;;4967284;28;20026;-81
2021/12/12 00:22:07;;;;;;;17.87;13.33;;;4.80;74.20;;;;;;4968696;28;20026;-81
2021/12/12 00:24:33;;;;;;;16.30;12.00;;;4.70;74.20;;;;;;4967272;28;20107;-81
2021/12/12 00:27:00;;;;;;;14.83;11.10;;;4.80;74.40;;;;;;4981929;28;20029;-81
2021/12/12 00:29:30;;;;;;;17.13;13.77;;;4.80;74.40;;;;;;4993090;28;20029;-81
2021/12/12 00:32:00;;;;;;;17.03;13.93;;;4.80;74.30;;;;;;4970535;28;20548;-81
2021/12/12 00:34:31;;;;;;;20.10;14.83;;;4.80;74.10;;;;;;4987079;28;20042;-81
2021/12/12 00:36:57;;;;;;;19.50;13.47;;;4.80;74.10;;;;;;4963286;28;20034;-81
2021/12/12 00:39:27;;;;;;;18.70;14.67;;;4.80;74.10;;;;;;4977556;28;20052;-81
2021/12/12 00:41:58;;;;;;;25.23;18.73;;;4.70;74.20;;;;;;4968112;28;20034;-81
2021/12/12 00:44:25;;;;;;;28.00;20.10;;;4.70;74.20;;;;;;4970487;28;20042;-81
2021/12/12 00:46:54;;;;;;;32.03;21.70;;;4.80;74.30;;;;;;4965922;28;20043;-81
2021/12/12 00:49:20;;;;;;;32.80;21.87;;;4.80;74.10;;;;;;4983139;28;20030;-81
2021/12/12 00:51:46;;;;;;;33.90;23.50;;;4.80;74.10;;;;;;4974587;28;20054;-81
2021/12/12 00:54:14;;;;;;;32.67;21.60;;;4.80;74.10;;;;;;4986145;28;20057;-81
2021/12/12 00:56:41;;;;;;;27.23;19.20;;;4.80;74.20;;;;;;4982936;28;20069;-81
2021/12/12 00:59:07;;;;;;;24.30;18.43;;;4.80;74.20;;;;;;4973113;28;20043;-81
2021/12/12 01:01:39;;;;;;;23.17;18.20;;;4.70;74.20;;;;;;4992301;28;20033;-81
2021/12/12 01:04:09;;;;;;;22.73;18.20;;;4.80;74.20;;;;;;4979959;28;20041;-81
2021/12/12 01:06:36;;;;;;;23.70;17.40;;;4.80;74.10;;;;;;4966192;28;20402;-81
2021/12/12 01:09:08;;;;;;;29.63;20.67;;;4.80;74.10;;;;;;4974435;28;20454;-81
2021/12/12 01:11:38;;;;;;;23.98;19.85;;;4.80;74.00;;;;;;4979136;28;20050;-81
2021/12/12 01:14:21;;;;;;;30.87;21.90;;;4.80;74.00;;;;;;4958650;28;20108;-81
2021/12/12 01:16:55;;;;;;;29.27;21.93;;;4.70;74.10;;;;;;4951501;28;20028;-81
2021/12/12 01:19:30;;;;;;;27.10;20.07;;;4.70;74.00;;;;;;4961725;28;20034;-81
2021/12/12 01:22:01;;;;;;;29.33;21.73;;;4.70;74.10;;;;;;4961855;28;20018;-81
2021/12/12 01:24:31;;;;;;;27.47;20.50;;;4.70;74.10;;;;;;4962946;28;20030;-81
2021/12/12 01:26:59;;;;;;;24.37;17.03;;;4.70;74.10;;;;;;4970257;28;20031;-81
2021/12/12 01:29:25;;;;;;;28.07;19.20;;;4.70;73.80;;;;;;4987933;28;20029;-81
2021/12/12 01:31:51;;;;;;;27.80;18.37;;;4.60;74.10;;;;;;4964670;28;20045;-81
2021/12/12 01:34:25;;;;;;;25.03;18.27;;;4.70;74.40;;;;;;4981352;28;20035;-82
2021/12/12 01:39:25;;;;;;;26.48;19.35;;;4.70;74.20;;;;;;4984905;28;20022;-81
2021/12/12 01:41:59;;;;;;;26.47;19.87;;;4.80;74.00;;;;;;4972567;28;20101;-81
2021/12/12 01:44:50;;;;;;;28.97;21.43;;;4.80;73.90;;;;;;4961800;28;20026;-81
2021/12/12 01:47:28;;;;;;;28.67;21.60;;;4.70;74.20;;;;;;4965578;28;20373;-81
2021/12/12 01:49:59;;;;;;;26.33;20.13;;;4.70;74.20;;;;;;4986448;28;20034;-81
2021/12/12 01:52:28;;;;;;;28.43;19.47;;;4.70;74.10;;;;;;4963460;28;20025;-81
2021/12/12 01:55:07;;;;;;;25.67;19.63;;;4.70;74.00;;;;;;4961844;28;20027;-81
2021/12/12 01:57:36;;;;;;;24.87;18.50;;;4.70;73.80;;;;;;4978834;28;20513;-81
2021/12/12 02:00:11;;;;;;;23.97;18.50;;;4.70;74.00;;;;;;4960145;28;20097;-81
2021/12/12 02:02:38;;;;;;;25.00;18.47;;;4.70;74.30;;;;;;4980650;28;20045;-81
2021/12/12 02:05:11;;;;;;;21.27;17.07;;;4.70;74.40;;;;;;4966468;28;20250;-81
2021/12/12 02:07:41;;;;;;;24.60;17.60;;;4.70;74.30;;;;;;4980955;28;20027;-81
2021/12/12 02:10:19;;;;;;;21.07;15.23;;;4.70;74.00;;;;;;4986498;28;20093;-81
2021/12/12 02:12:46;;;;;;;25.30;18.33;;;4.70;74.40;;;;;;4983769;28;20105;-82
2021/12/12 02:15:14;;;;;;;22.13;16.37;;;4.70;74.00;;;;;;4985232;28;20498;-81
2021/12/12 02:17:45;;;;;;;21.43;15.07;;;4.70;73.90;;;;;;4978000;28;20389;-81
2021/12/12 02:20:31;;;;;;;20.37;15.23;;;4.70;73.80;;;;;;4980802;28;20390;-81
2021/12/12 02:23:12;;;;;;;20.23;14.17;;;4.70;73.90;;;;;;4974069;28;20023;-81
2021/12/12 02:36:44;;;;;;;18.40;14.37;;;4.70;73.70;;;;;;4995191;28;20121;-81
2021/12/12 02:39:20;;;;;;;19.80;15.67;;;4.80;73.60;;;;;;4963641;28;20431;-81
2021/12/12 02:41:54;;;;;;;20.07;14.57;;;4.70;73.30;;;;;;4981323;28;20486;-81
2021/12/12 02:44:26;;;;;;;18.40;14.57;;;4.70;73.50;;;;;;4963272;28;20022;-81
2021/12/12 02:46:54;;;;;;;21.02;14.43;;;4.70;73.70;;;;;;4964893;28;20084;-81
2021/12/12 02:49:37;;;;;;;18.83;15.30;;;4.60;73.50;;;;;;4978821;28;20031;-81
2021/12/12 02:52:27;;;;;;;21.23;16.27;;;4.60;73.70;;;;;;4981234;28;20082;-81
2021/12/12 02:54:57;;;;;;;22.07;16.43;;;4.60;73.60;;;;;;4969462;28;20486;-81
2021/12/12 02:57:23;;;;;;;17.87;15.20;;;4.60;73.50;;;;;;4977097;28;20042;-81
2021/12/12 02:59:50;;;;;;;20.60;14.97;;;4.60;73.70;;;;;;4971060;28;20033;-81
2021/12/12 03:02:27;;;;;;;21.00;16.07;;;4.60;73.50;;;;;;4984442;28;20050;-81
2021/12/12 03:04:56;;;;;;;22.63;16.60;;;4.70;73.50;;;;;;4982692;28;20025;-81
2021/12/12 03:07:22;;;;;;;19.43;15.53;;;4.70;73.40;;;;;;4982466;28;20019;-81
2021/12/12 03:09:54;;;;;;;22.50;16.90;;;4.70;73.30;;;;;;4958924;28;20027;-81
2021/12/12 03:12:30;;;;;;;20.83;16.50;;;4.70;73.30;;;;;;4987001;28;20027;-81
2021/12/12 03:14:58;;;;;;;23.50;15.70;;;4.70;73.30;;;;;;4994447;28;20033;-81
2021/12/12 03:17:25;;;;;;;21.17;17.37;;;4.70;73.20;;;;;;4986965;28;20114;-81
2021/12/12 03:19:59;;;;;;;23.90;17.13;;;4.70;73.30;;;;;;4976537;28;20022;-81
2021/12/12 03:22:25;;;;;;;22.87;18.53;;;4.70;73.40;;;;;;4970373;28;20030;-81
2021/12/12 03:24:52;;;;;;;25.07;19.17;;;4.60;73.20;;;;;;4971891;28;20035;-81
2021/12/12 03:27:20;;;;;;;23.00;18.40;;;4.60;73.30;;;;;;4981533;28;20023;-81
2021/12/12 03:29:48;;;;;;;23.60;17.70;;;4.60;73.50;;;;;;4969942;28;20034;-81
2021/12/12 03:32:16;;;;;;;22.87;17.43;;;4.60;73.70;;;;;;4967245;28;20037;-81
2021/12/12 03:34:46;;;;;;;27.70;18.63;;;4.50;73.50;;;;;;4986868;28;20034;-81
2021/12/12 03:37:19;;;;;;;23.97;18.57;;;4.60;74.20;;;;;;4980726;28;20483;-81
2021/12/12 03:39:48;;;;;;;22.10;17.83;;;4.60;73.60;;;;;;4967813;28;20029;-81
2021/12/12 03:42:18;;;;;;;24.93;18.60;;;4.50;73.40;;;;;;4975283;28;20039;-81
2021/12/12 03:44:45;;;;;;;23.87;17.77;;;4.50;73.30;;;;;;4983672;28;20509;-81
2021/12/12 03:47:26;;;;;;;25.00;18.53;;;4.40;73.60;;;;;;4983657;28;20105;-81
2021/12/12 03:49:53;;;;;;;22.90;18.93;;;4.40;73.80;;;;;;4961089;28;20030;-81
2021/12/12 03:52:21;;;;;;;28.83;19.67;;;4.40;73.80;;;;;;4978671;28;20086;-81
2021/12/12 03:54:49;;;;;;;26.00;19.27;;;4.50;73.80;;;;;;4968870;28;20107;-81
2021/12/12 03:57:18;;;;;;;25.20;18.47;;;4.50;73.80;;;;;;4964881;28;20054;-81
2021/12/12 03:59:44;;;;;;;21.70;15.97;;;4.50;73.80;;;;;;4983108;28;20486;-81
2021/12/12 04:02:10;;;;;;;26.50;18.83;;;4.50;74.00;;;;;;4979395;28;20129;-81
2021/12/12 04:04:41;;;;;;;26.00;19.50;;;4.50;74.00;;;;;;4985188;28;20112;-81
2021/12/12 04:07:36;;;;;;;25.70;19.17;;;4.50;74.00;;;;;;4963708;28;20076;-81
2021/12/12 04:10:05;;;;;;;21.33;17.97;;;4.60;73.80;;;;;;4963019;28;20045;-81
2021/12/12 04:12:32;;;;;;;24.93;19.57;;;4.60;73.70;;;;;;4983283;28;20041;-81
2021/12/12 04:14:57;;;;;;;29.87;18.67;;;4.60;73.70;;;;;;4962364;28;20038;-81
2021/12/12 04:17:27;;;;;;;25.13;18.87;;;4.60;73.80;;;;;;4970199;28;20034;-81
2021/12/12 04:19:55;;;;;;;26.47;20.27;;;4.60;73.80;;;;;;4980273;28;20067;-81
2021/12/12 04:22:21;;;;;;;28.67;20.47;;;4.60;73.60;;;;;;4983295;28;20018;-81
2021/12/12 04:24:50;;;;;;;28.00;20.60;;;4.50;73.40;;;;;;4981855;28;20027;-81
2021/12/12 04:27:18;;;;;;;29.97;21.70;;;4.40;73.70;;;;;;4979884;28;20027;-81
2021/12/12 04:29:47;;;;;;;30.87;21.30;;;4.40;73.80;;;;;;4981787;28;20507;-81
2021/12/12 04:32:19;;;;;;;30.40;22.63;;;4.40;73.80;;;;;;4964893;28;20022;-81
2021/12/12 04:34:52;;;;;;;27.63;20.25;;;4.50;73.80;;;;;;4965087;28;20154;-81
2021/12/12 04:37:18;;;;;;;22.00;16.63;;;4.50;73.70;;;;;;4964738;28;20421;-81
2021/12/12 04:39:49;;;;;;;23.37;17.87;;;4.50;73.50;;;;;;4966171;28;20121;-81
2021/12/12 04:42:23;;;;;;;26.23;19.27;;;4.50;73.40;;;;;;4984291;28;20031;-81
2021/12/12 04:44:53;;;;;;;17.83;14.53;;;4.40;73.50;;;;;;4982946;28;20030;-81
2021/12/12 04:50:51;;;;;;;18.27;14.07;;;4.30;73.80;;;;;;4995443;28;20032;-81
2021/12/12 04:53:42;;;;;;;20.90;14.25;;;4.40;73.60;;;;;;4983997;28;20031;-82
2021/12/12 04:56:16;;;;;;;17.83;13.67;;;4.40;73.80;;;;;;4964310;28;21725;-81
2021/12/12 04:58:46;;;;;;;19.33;15.10;;;4.40;73.50;;;;;;4982375;28;20066;-81
2021/12/12 05:01:14;;;;;;;21.30;15.10;;;4.50;73.70;;;;;;4966833;28;20045;-81
2021/12/12 05:04:04;;;;;;;22.77;15.57;;;4.40;73.60;;;;;;4962430;28;20612;-81
2021/12/12 05:07:09;;;;;;;23.43;16.27;;;4.50;73.70;;;;;;4960014;28;20061;-81
2021/12/12 05:09:49;;;;;;;20.40;16.30;;;4.50;73.50;;;;;;4931966;28;20038;-81
2021/12/12 05:12:29;;;;;;;21.83;16.93;;;4.40;73.30;;;;;;4970051;28;20066;-81
2021/12/12 05:15:09;;;;;;;23.50;16.87;;;4.40;73.50;;;;;;4978079;28;20035;-81
2021/12/12 05:17:43;;;;;;;23.00;17.30;;;4.40;73.50;;;;;;4981960;28;20033;-81
2021/12/12 05:20:17;;;;;;;23.07;17.20;;;4.30;73.70;;;;;;4983133;28;20518;-81
2021/12/12 05:22:48;;;;;;;22.67;16.43;;;4.40;73.50;;;;;;4965650;28;20027;-81
2021/12/12 05:25:19;;;;;;;24.43;18.73;;;4.40;73.50;;;;;;4979554;28;20398;-81
2021/12/12 05:27:47;;;;;;;24.47;18.13;;;4.40;73.50;;;;;;4983929;28;20520;-81
2021/12/12 05:30:21;;;;;;;26.43;20.00;;;4.30;73.50;;;;;;4962430;28;20394;-81
2021/12/12 05:32:49;;;;;;;25.87;19.93;;;4.30;73.40;;;;;;4977760;28;20026;-81
2021/12/12 05:35:19;;;;;;;29.23;19.63;;;4.30;73.50;;;;;;4978022;28;20030;-81
2021/12/12 05:37:54;;;;;;;26.93;20.17;;;4.30;73.50;;;;;;4984650;28;20038;-82
2021/12/12 05:40:24;;;;;;;26.27;20.27;;;4.40;73.50;;;;;;4968146;28;20026;-82
2021/12/12 05:42:55;;;;;;;24.70;18.27;;;4.40;73.50;;;;;;4978564;28;20533;-81
2021/12/12 05:45:21;;;;;;;30.00;21.93;;;4.40;73.40;;;;;;4967742;28;20030;-82
2021/12/12 05:47:48;;;;;;;28.93;20.47;;;4.30;73.50;;;;;;4967942;28;20034;-82
2021/12/12 05:50:16;;;;;;;27.43;19.53;;;4.30;73.90;;;;;;4964997;28;20031;-82
2021/12/12 05:52:43;;;;;;;30.77;22.67;;;4.40;74.00;;;;;;4964412;28;20509;-81
2021/12/12 05:55:11;;;;;;;31.90;22.73;;;4.40;73.80;;;;;;4967444;28;20029;-81
2021/12/12 05:57:37;;;;;;;24.40;17.23;;;4.50;73.70;;;;;;4959152;28;20065;-79
2021/12/12 06:00:11;;;;;;;27.33;19.70;;;4.50;73.60;;;;;;4963535;28;20046;-79
2021/12/12 06:02:38;;;;;;;30.03;20.07;;;4.40;73.70;;;;;;4982985;28;20023;-80
2021/12/12 06:05:05;;;;;;;27.53;20.57;;;4.50;74.00;;;;;;4959913;28;20328;-80
2021/12/12 06:07:32;;;;;;;29.07;21.37;;;4.50;74.00;;;;;;4968239;28;20149;-80
2021/12/12 06:10:04;;;;;;;29.27;22.80;;;4.50;73.70;;;;;;4981721;28;20068;-79
2021/12/12 06:12:33;;;;;;;29.57;21.10;;;4.50;73.90;;;;;;4968680;28;20026;-80
2021/12/12 06:15:00;;;;;;;32.57;23.47;;;4.50;73.90;;;;;;4964103;28;20031;-80
2021/12/12 06:17:26;;;;;;;31.33;21.53;;;4.50;73.60;;;;;;4965279;28;20058;-80
2021/12/12 06:19:55;;;;;;;30.70;21.60;;;4.50;73.60;;;;;;4960173;28;20030;-80
2021/12/12 06:22:21;;;;;;;25.87;19.03;;;4.50;73.70;;;;;;4965359;28;20046;-80
2021/12/12 06:24:48;;;;;;;26.10;16.83;;;4.50;73.40;;;;;;4966252;28;20431;-80
2021/12/12 06:27:17;;;;;;;25.07;18.23;;;4.50;73.30;;;;;;4959357;28;20141;-80
2021/12/12 06:29:47;;;;;;;24.03;17.70;;;4.40;73.10;;;;;;4982244;28;20129;-80
2021/12/12 06:32:13;;;;;;;32.27;21.43;;;4.40;73.30;;;;;;4985340;28;20026;-80
2021/12/12 06:34:40;;;;;;;33.17;22.47;;;4.40;73.00;;;;;;4960358;28;20499;-80
2021/12/12 06:37:06;;;;;;;23.80;16.83;;;4.40;73.10;;;;;;4989624;28;20513;-80
2021/12/12 06:39:32;;;;;;;25.83;18.00;;;4.30;73.00;;;;;;4982934;28;20030;-80
2021/12/12 06:41:59;;;;;;;21.73;16.83;;;4.30;73.20;;;;;;4975994;28;20109;-79
2021/12/12 06:44:25;;;;;;;27.87;17.83;;;4.20;73.10;;;;;;4970464;28;20494;-80
2021/12/12 06:46:53;;;;;;;32.73;19.83;;;4.20;73.20;;;;;;4981483;28;20033;-79
2021/12/12 06:49:20;;;;;;;29.23;19.70;;;4.30;73.10;;;;;;4990366;28;20026;-80
2021/12/12 06:51:53;;;;;;;28.17;18.83;;;4.20;73.00;;;;;;4979742;28;20479;-80
2021/12/12 06:54:21;;;;;;;30.95;19.10;;;4.20;73.10;;;;;;4983920;28;20026;-80
2021/12/12 06:56:50;;;;;;;29.73;20.83;;;4.20;72.90;;;;;;4967182;28;20047;-81
2021/12/12 06:59:16;;;;;;;28.17;20.43;;;4.20;73.10;;;;;;4992478;28;20035;-81
2021/12/12 07:01:42;;;;;;;29.73;21.63;;;4.20;73.00;;;;;;4965762;28;20489;-80
2021/12/12 07:04:10;;;;;;;33.07;20.97;;;4.20;73.00;;;;;;4985510;28;20426;-80
2021/12/12 07:06:37;;;;;;;30.40;20.03;;;4.20;72.90;;;;;;4972727;28;20109;-80
2021/12/12 07:09:07;;;;;;;28.10;19.23;;;4.20;73.00;;;;;;4971631;28;20038;-81
2021/12/12 07:11:34;;;;;;;27.50;19.30;;;4.20;72.90;;;;;;4989343;28;20037;-81
2021/12/12 07:14:01;;;;;;;29.83;19.87;;;4.20;72.90;;;;;;4988773;28;20092;-81
2021/12/12 07:16:28;;;;;;;28.17;19.00;;;4.10;72.80;;;;;;4986051;28;20034;-80
2021/12/12 07:18:54;;;;;;;26.90;18.50;;;4.10;72.80;;;;;;4960403;28;20037;-80
2021/12/12 07:21:23;;;;;;;26.40;18.23;;;4.10;72.80;;;;;;4982605;28;20059;-80
2021/12/12 07:23:52;;;;;;;31.50;19.67;;;4.00;72.60;;;;;;4964845;28;20121;-80
2021/12/12 07:26:21;;;;;;;37.50;21.30;;;4.00;72.70;;;;;;4965289;28;20030;-80
2021/12/12 07:28:48;;;;;;;32.83;21.03;;;3.90;72.80;;;;;;4985724;28;20031;-80
2021/12/12 07:31:21;;;;;;;29.60;19.13;;;3.90;73.00;;;;;;4974278;28;20026;-80
2021/12/12 07:33:51;;;;;;;31.03;19.30;;;3.90;72.80;;;;;;4983513;28;20034;-80
2021/12/12 07:36:19;;;;;;;25.70;18.17;;;3.80;72.80;;;;;;4964862;28;20042;-80
2021/12/12 07:38:51;;;;;;;26.53;19.13;;;3.80;72.90;;;;;;4991757;28;20418;-80
2021/12/12 07:41:24;;;;;;;26.90;17.60;;;3.80;72.70;;;;;;4964364;28;20442;-80
2021/12/12 07:43:50;;;;;;;26.10;18.27;;;3.80;72.70;;;;;;4970152;28;20031;-80
2021/12/12 07:46:17;;;;;;;30.13;21.17;;;3.70;72.90;;;;;;4968317;28;20062;-80
2021/12/12 07:48:49;;;;;;;29.53;20.60;;;3.70;72.70;;;;;;4964714;28;20030;-80
2021/12/12 07:51:16;;;;;;;33.45;21.73;;;3.70;73.00;;;;;;4984100;28;20051;-80
2021/12/12 07:53:43;;;;;;;31.83;21.13;;;3.70;72.90;;;;;;4965859;28;20061;-81
2021/12/12 07:56:09;;;;;;;29.10;19.57;;;3.70;72.70;;;;;;4969863;28;20110;-81
2021/12/12 07:58:36;;;;;;;29.90;19.33;;;3.70;72.90;;;;;;4988908;28;20029;-81
2021/12/12 08:01:03;;;;;;;30.23;20.93;;;3.70;72.50;;;;;;4967283;28;20050;-81
2021/12/12 08:03:32;;;;;;;38.33;28.00;;;3.70;72.70;;;;;;4992738;28;20073;-81
2021/12/12 08:06:00;;;;;;;33.93;24.30;;;3.70;72.70;;;;;;4977700;28;20441;-81
2021/12/12 08:08:27;;;;;;;31.17;21.13;;;3.80;72.90;;;;;;4966599;28;20062;-81
2021/12/12 08:10:53;;;;;;;27.50;19.97;;;3.80;72.60;;;;;;4978380;28;20037;-81
2021/12/12 08:13:20;;;;;;;28.77;19.77;;;3.80;72.70;;;;;;4980669;28;20087;-81
2021/12/12 08:15:46;;;;;;;26.87;18.60;;;3.80;72.50;;;;;;4962539;28;20505;-81
2021/12/12 08:18:15;;;;;;;27.07;18.90;;;3.70;72.30;;;;;;4983614;28;20507;-81
2021/12/12 08:20:43;;;;;;;27.57;18.40;;;3.80;73.20;;;;;;4969028;28;20137;-81
2021/12/12 08:23:10;;;;;;;27.27;19.73;;;3.80;72.30;;;;;;4984709;28;20036;-81
2021/12/12 08:25:37;;;;;;;29.53;19.07;;;3.90;72.20;;;;;;4961000;28;20019;-81
2021/12/12 08:28:04;;;;;;;28.03;20.10;;;3.90;72.20;;;;;;4971258;28;20118;-81
2021/12/12 08:30:33;;;;;;;31.77;21.37;;;4.00;72.10;;;;;;4983216;28;20032;-81
2021/12/12 08:32:59;;;;;;;29.10;20.27;;;4.00;72.00;;;;;;4978295;28;20091;-81
2021/12/12 08:35:26;;;;;;;24.77;19.43;;;4.00;71.80;;;;;;4962595;28;20441;-81
2021/12/12 08:37:52;;;;;;;27.10;18.63;;;3.90;71.70;;;;;;4963865;28;20481;-81
2021/12/12 08:40:24;;;;;;;27.17;19.23;;;3.90;72.10;;;;;;4974325;28;20023;-81
2021/12/12 08:42:52;;;;;;;28.37;19.57;;;3.90;71.70;;;;;;4985254;28;20030;-81
2021/12/12 08:45:25;;;;;;;30.07;21.67;;;3.90;71.70;;;;;;4968219;28;20027;-81
2021/12/12 08:47:51;;;;;;;;;;;4.00;71.90;;;;;;4964436;28;20030;-81
2021/12/12 08:50:23;;;;;;;28.20;20.50;;;4.10;72.00;;;;;;4984947;28;20008;-81
2021/12/12 08:52:51;;;;;;;31.23;20.73;;;4.10;71.50;;;;;;4963589;28;20041;-81
2021/12/12 08:55:21;;;;;;;28.53;21.27;;;4.10;71.60;;;;;;4967346;28;20030;-81
2021/12/12 08:57:58;;;;;;;28.40;19.90;;;4.20;71.60;;;;;;4972915;28;20078;-81
2021/12/12 09:00:28;;;;;;;30.00;20.37;;;4.30;71.40;;;;;;4974801;28;20050;-80
2021/12/12 09:02:55;;;;;;;31.07;21.27;;;4.30;71.10;;;;;;4986009;28;20034;-81
2021/12/12 09:05:28;;;;;;;28.20;20.37;;;4.30;71.20;;;;;;4977532;28;20022;-81
2021/12/12 09:08:00;;;;;;;35.00;22.70;;;4.30;71.10;;;;;;4982016;28;20391;-81
2021/12/12 09:10:37;;;;;;;29.70;22.03;;;4.30;71.60;;;;;;4969368;28;20030;-81
2021/12/12 09:13:13;;;;;;;29.70;21.00;;;4.30;71.10;;;;;;4977704;28;20034;-81
2021/12/12 09:15:58;;;;;;;28.57;20.73;;;4.30;71.20;;;;;;4972002;28;20026;-81
2021/12/12 09:18:47;;;;;;;29.77;19.57;;;4.20;71.30;;;;;;4980357;28;20034;-81
2021/12/12 09:21:25;;;;;;;26.30;19.23;;;4.20;71.30;;;;;;4979187;28;20463;-81
2021/12/12 09:24:10;;;;;;;22.10;15.80;;;4.40;71.80;;;;;;4983157;28;20031;-81
2021/12/12 09:26:46;;;;;;;29.80;20.40;;;4.50;71.60;;;;;;4968060;28;20026;-81
2021/12/12 09:29:32;;;;;;;28.47;21.00;;;4.70;71.00;;;;;;4984246;28;20782;-81
2021/12/12 09:32:24;;;;;;;26.70;19.77;;;4.70;70.30;;;;;;4981058;28;20034;-81
2021/12/12 09:34:55;;;;;;;23.80;17.60;;;4.80;70.70;;;;;;4962232;28;20049;-81
2021/12/12 09:37:38;;;;;;;25.73;18.90;;;4.90;70.30;;;;;;4969146;28;20030;-81
2021/12/12 09:40:41;;;;;;;27.38;19.13;;;4.90;70.10;;;;;;4972954;28;20030;-81
2021/12/12 09:43:41;;;;;;;26.45;17.27;;;4.90;69.90;;;;;;4981546;28;20101;-81
2021/12/12 09:46:30;;;;;;;24.73;17.33;;;5.10;69.90;;;;;;4981088;28;20014;-81
2021/12/12 09:52:42;;;;;;;21.93;15.77;;;5.10;69.00;;;;;;4980723;28;20153;-81
2021/12/12 09:55:13;;;;;;;23.30;16.50;;;5.10;69.10;;;;;;4981443;28;20033;-81
2021/12/12 09:58:00;;;;;;;22.07;15.17;;;5.20;68.90;;;;;;4963451;28;20034;-81
2021/12/12 10:00:40;;;;;;;21.27;15.70;;;5.30;68.40;;;;;;4965535;28;20019;-81
2021/12/12 10:03:20;;;;;;;23.67;15.50;;;5.40;68.10;;;;;;4962809;28;20042;-81
2021/12/12 10:06:13;;;;;;;22.03;15.70;;;5.50;67.70;;;;;;4970489;28;20709;-81
2021/12/12 10:08:57;;;;;;;21.63;15.48;;;5.50;67.60;;;;;;4968435;28;20055;-81
2021/12/12 10:11:44;;;;;;;22.40;16.30;;;5.40;67.10;;;;;;4978785;28;20086;-81
2021/12/12 10:14:23;;;;;;;23.37;15.07;;;5.40;67.10;;;;;;4960270;28;20077;-81
2021/12/12 10:17:22;;;;;;;21.90;16.10;;;5.50;66.70;;;;;;4976938;28;20494;-81
2021/12/12 10:19:54;;;;;;;29.73;20.00;;;5.60;66.50;;;;;;4977080;28;20040;-81
2021/12/12 10:22:55;;;;;;;24.15;17.95;;;5.80;66.40;;;;;;4961145;28;20538;-81
2021/12/12 10:25:30;;;;;;;22.27;16.57;;;6.00;65.70;;;;;;4921845;28;20037;-81
2021/12/12 10:28:24;;;;;;;23.70;18.50;;;6.20;65.20;;;;;;4980847;28;20109;-81
2021/12/12 10:31:16;;;;;;;25.23;18.40;;;6.40;64.80;;;;;;4986898;28;20549;-81
2021/12/12 10:33:55;;;;;;;21.77;16.63;;;6.60;64.70;;;;;;4971721;28;20042;-81
2021/12/12 10:36:47;;;;;;;25.97;16.87;;;6.70;64.60;;;;;;4983532;28;20110;-81
2021/12/12 10:39:18;;;;;;;27.20;19.70;;;6.80;64.40;;;;;;4952280;28;20054;-81
2021/12/12 10:41:53;;;;;;;23.47;16.93;;;6.90;64.00;;;;;;4966881;28;20038;-81
2021/12/12 10:44:32;;;;;;;28.37;19.00;;;7.00;63.60;;;;;;4983089;28;20077;-81
2021/12/12 10:47:04;;;;;;;27.37;18.77;;;7.00;63.40;;;;;;4984336;28;20057;-81
2021/12/12 10:49:42;;;;;;;22.63;16.63;;;7.10;63.10;;;;;;4961395;28;20066;-81
2021/12/12 10:52:15;;;;;;;21.57;14.87;;;7.30;62.40;;;;;;4985677;28;20477;-81
2021/12/12 10:54:48;;;;;;;20.60;15.70;;;7.30;62.50;;;;;;4968198;28;20026;-81
2021/12/12 10:57:25;;;;;;;16.80;12.40;;;7.40;62.60;;;;;;4983422;28;20072;-81
2021/12/12 10:59:57;;;;;;;16.80;12.83;;;7.40;61.40;;;;;;4970885;28;20479;-82
2021/12/12 11:02:32;;;;;;;20.03;14.67;;;7.40;61.20;;;;;;4968425;28;20030;-81
2021/12/12 11:05:11;;;;;;;20.10;13.60;;;7.60;61.00;;;;;;4983017;28;20376;-81
2021/12/12 11:07:40;;;;;;;20.47;14.17;;;7.50;60.50;;;;;;4982533;28;20026;-81
2021/12/12 11:10:11;;;;;;;19.97;13.90;;;7.60;60.60;;;;;;4986197;28;20118;-81
2021/12/12 11:12:55;;;;;;;20.53;13.27;;;7.60;60.20;;;;;;4973953;28;20026;-81
2021/12/12 11:15:48;;;;;;;17.57;14.30;;;7.60;59.80;;;;;;4977568;28;20030;-81
2021/12/12 11:18:20;;;;;;;;;;;7.70;59.50;;;;;;4983816;28;20027;-81
2021/12/12 11:20:54;;;;;;;19.47;13.03;;;7.70;60.00;;;;;;4978586;28;19917;-81
2021/12/12 11:23:32;;;;;;;16.27;11.43;;;7.70;59.60;;;;;;4966921;28;20027;-81
2021/12/12 11:26:00;;;;;;;14.43;11.20;;;7.70;59.30;;;;;;4983242;28;20022;-81
2021/12/12 11:28:39;;;;;;;16.40;13.03;;;7.70;59.10;;;;;;4985443;28;20363;-81
2021/12/12 11:31:12;;;;;;;17.77;13.67;;;7.80;58.80;;;;;;4985265;28;20145;-81
2021/12/12 11:33:42;;;;;;;17.30;13.77;;;7.80;58.90;;;;;;4965427;28;20477;-81
2021/12/12 11:36:14;;;;;;;22.57;15.87;;;7.90;59.00;;;;;;4966358;28;20049;-82
2021/12/12 11:38:49;;;;;;;21.08;16.10;;;7.90;59.00;;;;;;4960813;28;20075;-81
2021/12/12 11:41:37;;;;;;;22.77;16.20;;;8.10;58.90;;;;;;4981430;28;20109;-82
2021/12/12 11:44:21;;;;;;;23.43;17.37;;;8.10;58.90;;;;;;4964633;28;20463;-81
2021/12/12 11:47:12;;;;;;;18.63;13.93;;;8.20;58.90;;;;;;4967455;28;20117;-81
2021/12/12 11:49:48;;;;;;;14.30;12.03;;;8.20;58.70;;;;;;4977738;28;20031;-81
2021/12/12 11:52:21;;;;;;;15.37;12.00;;;8.30;58.40;;;;;;4977820;28;20030;-82
2021/12/12 11:54:59;;;;;;;14.17;10.53;;;8.30;58.20;;;;;;4964523;28;20113;-81
2021/12/12 11:57:30;;;;;;;15.43;11.20;;;8.40;57.80;;;;;;4977957;28;20088;-81
2021/12/12 12:00:02;;;;;;;10.30;6.97;;;8.40;57.50;;;;;;4985471;28;20049;-81
2021/12/12 12:02:54;;;;;;;11.13;7.83;;;8.40;57.10;;;;;;4974152;28;20038;-82
2021/12/12 12:05:32;;;;;;;12.60;8.13;;;8.50;56.40;;;;;;4960047;28;20357;-81
2021/12/12 12:08:28;;;;;;;9.93;7.83;;;8.40;56.10;;;;;;4987651;28;20505;-81
2021/12/12 12:11:27;;;;;;;12.80;7.87;;;8.40;56.00;;;;;;4979517;28;20030;-82
2021/12/12 12:14:16;;;;;;;11.37;8.23;;;8.40;56.20;;;;;;4976081;28;20511;-81
2021/12/12 12:16:48;;;;;;;13.60;9.20;;;8.40;56.20;;;;;;4982398;28;20038;-81
2021/12/12 12:19:42;;;;;;;11.45;8.45;;;8.50;56.00;;;;;;4960801;28;20538;-81
2021/12/12 12:22:43;;;;;;;12.17;8.57;;;8.60;55.80;;;;;;4982427;28;20383;-81
2021/12/12 12:25:40;;;;;;;12.73;9.67;;;8.40;55.70;;;;;;4975907;28;20029;-81
2021/12/12 12:28:09;;;;;;;11.53;8.60;;;8.40;55.70;;;;;;4979560;28;20394;-81
2021/12/12 12:30:52;;;;;;;12.13;8.97;;;8.40;55.80;;;;;;4985811;28;20081;-81
2021/12/12 12:33:56;;;;;;;11.67;9.37;;;8.40;55.80;;;;;;4989195;28;20026;-81
2021/12/12 12:36:59;;;;;;;14.35;9.75;;;8.50;55.50;;;;;;4965510;28;20478;-81
2021/12/12 12:39:30;;;;;;;13.23;9.95;;;8.30;55.10;;;;;;4972371;28;20125;-81
2021/12/12 12:42:21;;;;;;;13.83;10.57;;;8.10;55.50;;;;;;4971799;28;20146;-81
2021/12/12 12:45:24;;;;;;;11.13;8.87;;;7.90;55.50;;;;;;4982633;28;20101;-81
2021/12/12 12:48:27;;;;;;;12.50;9.27;;;7.70;55.60;;;;;;4982873;28;20370;-81
2021/12/12 12:51:14;;;;;;;14.20;10.48;;;7.50;56.10;;;;;;4971349;28;20513;-81
2021/12/12 12:54:14;;;;;;;13.27;9.83;;;7.50;56.50;;;;;;4959533;28;20021;-81
2021/12/12 12:56:58;;;;;;;12.47;9.47;;;7.40;56.20;;;;;;4975302;28;20066;-81
2021/12/12 12:59:37;;;;;;;11.40;9.00;;;7.20;56.20;;;;;;4957493;28;20045;-81
2021/12/12 13:02:05;;;;;;;15.67;11.13;;;7.20;56.80;;;;;;4959978;28;20062;-81
2021/12/12 13:04:47;;;;;;;16.57;11.17;;;7.20;56.90;;;;;;4968317;28;20027;-82
2021/12/12 13:07:40;;;;;;;15.83;11.40;;;7.30;57.00;;;;;;4972838;28;20033;-81
2021/12/12 13:10:22;;;;;;;16.07;11.87;;;7.30;57.30;;;;;;4966792;28;22263;-81
2021/12/12 13:13:11;;;;;;;17.53;12.97;;;7.30;57.50;;;;;;4961676;28;20031;-81
2021/12/12 13:15:43;;;;;;;18.30;12.87;;;7.30;57.70;;;;;;4979881;28;20030;-81
2021/12/12 13:18:20;;;;;;;21.40;14.57;;;7.30;57.90;;;;;;4980548;28;20393;-81
2021/12/12 13:21:18;;;;;;;20.17;13.70;;;7.30;58.00;;;;;;4973487;28;20026;-81
2021/12/12 13:23:53;;;;;;;15.07;11.47;;;7.20;58.00;;;;;;4968321;28;20034;-81
2021/12/12 13:26:38;;;;;;;16.17;11.17;;;7.20;58.10;;;;;;4965208;28;20050;-81
2021/12/12 13:29:30;;;;;;;19.23;12.90;;;7.10;58.20;;;;;;4960459;28;20050;-81
2021/12/12 13:32:02;;;;;;;28.23;16.77;;;7.10;58.20;;;;;;4965676;28;20600;-81
2021/12/12 13:34:32;;;;;;;15.95;10.95;;;7.10;58.40;;;;;;4965125;28;20030;-81